Time;durP1;ratioP1;P1;durP2;ratioP2;P2;SDS_P1;SDS_P2;PMS_P1;PMS_P2;Temp;Humidity;BMP_temperature;BMP_pressure;BME280_temperature;BME280_humidity;BME280_pressure;Samples;Min_cycle;Max_cycle;Signal;HPM_P1;HPM_P2
2022/08/18 00:00:30;;;;;;;;;;;19.00;99.90;;;;;;5119125;27;20195;-85
2022/08/18 00:03:07;;;;;;;19.00;17.00;;;19.00;99.90;;;;;;5102713;27;20060;-84
2022/08/18 00:05:35;;;;;;;19.20;16.67;;;19.00;99.90;;;;;;5100518;27;20398;-84
2022/08/18 00:08:01;;;;;;;18.50;16.02;;;19.10;99.90;;;;;;5098064;27;21173;-82
2022/08/18 00:10:27;;;;;;;20.15;16.55;;;19.00;99.90;;;;;;5089881;27;20042;-82
2022/08/18 00:12:53;;;;;;;21.95;18.65;;;19.10;99.90;;;;;;5105254;27;20042;-82
2022/08/18 00:15:23;;;;;;;35.72;23.17;;;19.00;99.90;;;;;;5097856;27;20635;-82
2022/08/18 00:17:48;;;;;;;41.50;23.75;;;19.00;99.90;;;;;;5086702;27;20035;-82
2022/08/18 00:20:24;;;;;;;53.97;25.13;;;18.90;99.90;;;;;;5068252;27;20042;-82
2022/08/18 00:22:51;;;;;;;24.10;17.75;;;18.90;99.90;;;;;;5093951;27;20073;-83
2022/08/18 00:25:18;;;;;;;17.88;13.73;;;18.90;99.90;;;;;;5102172;27;20134;-82
2022/08/18 00:27:44;;;;;;;16.20;11.80;;;18.90;99.90;;;;;;5119080;27;20067;-82
2022/08/18 00:30:14;;;;;;;14.93;10.90;;;18.90;99.90;;;;;;5099249;27;20613;-82
2022/08/18 00:32:45;;;;;;;16.73;11.63;;;18.90;99.90;;;;;;5100565;27;20085;-82
2022/08/18 00:35:28;;;;;;;14.13;9.25;;;18.90;99.90;;;;;;5111931;27;20035;-82
2022/08/18 00:37:56;;;;;;;16.98;8.63;;;18.90;99.90;;;;;;5100840;27;20035;-82
2022/08/18 00:40:45;;;;;;;13.07;8.38;;;18.90;99.90;;;;;;5101778;27;20409;-82
2022/08/18 00:43:16;;;;;;;19.13;9.97;;;18.90;99.90;;;;;;5049596;27;20045;-83
2022/08/18 00:45:42;;;;;;;17.55;9.57;;;18.80;99.90;;;;;;5099661;27;20130;-82
2022/08/18 00:48:10;;;;;;;16.58;9.98;;;18.80;99.90;;;;;;5077776;27;20053;-84
2022/08/18 00:50:44;;;;;;;15.27;9.63;;;18.80;99.90;;;;;;5100751;27;20512;-85
2022/08/18 00:53:36;;;;;;;18.90;10.15;;;18.80;99.90;;;;;;5116765;27;20922;-86
2022/08/18 00:56:15;;;;;;;13.98;9.23;;;18.80;99.90;;;;;;5106270;27;20047;-85
2022/08/18 00:58:55;;;;;;;20.50;11.07;;;18.80;99.90;;;;;;5100502;27;20039;-84
2022/08/18 01:01:25;;;;;;;24.02;13.98;;;18.70;99.90;;;;;;5103724;27;20061;-84
2022/08/18 01:03:57;;;;;;;37.42;18.42;;;18.70;99.90;;;;;;5099419;27;20047;-85
2022/08/18 01:06:32;;;;;;;17.23;11.75;;;18.80;99.90;;;;;;5100508;27;20089;-85
2022/08/18 01:08:58;;;;;;;15.98;11.57;;;18.70;99.90;;;;;;5119109;27;20043;-85
2022/08/18 01:11:24;;;;;;;19.60;12.75;;;18.70;99.90;;;;;;5118465;27;20085;-82
2022/08/18 01:13:50;;;;;;;23.40;14.10;;;18.70;99.90;;;;;;5085611;27;20085;-85
2022/08/18 01:21:52;;;;;;;15.13;11.20;;;18.70;99.90;;;;;;5101446;27;20066;-85
2022/08/18 01:25:58;;;;;;;22.58;13.18;;;18.70;99.90;;;;;;5116350;27;20050;-84
2022/08/18 01:27:16;;;;;;;44.13;21.75;;;18.80;99.90;;;;;;5117305;27;20051;-85
2022/08/18 01:29:46;;;;;;;15.07;10.35;;;18.80;99.90;;;;;;5094159;27;20043;-82
2022/08/18 01:32:19;;;;;;;;;;;18.70;99.90;;;;;;5095896;27;20133;-84
2022/08/18 01:34:47;;;;;;;35.05;19.92;;;18.70;99.90;;;;;;5094986;27;19923;-85
2022/08/18 01:37:19;;;;;;;36.90;20.10;;;18.70;99.90;;;;;;5092132;27;20305;-85
2022/08/18 01:39:46;;;;;;;39.72;20.70;;;18.70;99.90;;;;;;5095136;27;20956;-84
2022/08/18 01:42:15;;;;;;;56.38;25.13;;;18.70;99.90;;;;;;5102181;27;20038;-84
2022/08/18 01:44:43;;;;;;;77.72;30.88;;;18.80;99.90;;;;;;5096220;27;20460;-85
2022/08/18 01:47:14;;;;;;;19.85;16.65;;;18.80;99.90;;;;;;5116225;27;20489;-82
2022/08/18 01:49:41;;;;;;;31.90;21.35;;;18.80;99.90;;;;;;5089956;27;20078;-85
2022/08/18 01:52:09;;;;;;;22.05;18.45;;;18.80;99.90;;;;;;5101655;27;20412;-85
2022/08/18 01:54:39;;;;;;;36.80;26.20;;;18.80;99.90;;;;;;5085684;27;20405;-84
2022/08/18 01:57:12;;;;;;;82.93;33.85;;;18.80;99.90;;;;;;5093858;27;20038;-85
2022/08/18 01:59:38;;;;;;;23.15;19.60;;;18.80;99.90;;;;;;5094690;27;20055;-85
2022/08/18 02:02:04;;;;;;;93.53;34.97;;;18.80;99.90;;;;;;5069887;27;20039;-84
2022/08/18 02:04:33;;;;;;;31.02;22.58;;;18.80;99.90;;;;;;5086262;27;20494;-85
2022/08/18 02:07:01;;;;;;;26.27;22.17;;;18.90;99.90;;;;;;5085429;27;20475;-84
2022/08/18 02:09:28;;;;;;;27.05;21.95;;;18.90;99.90;;;;;;5086458;27;20648;-85
2022/08/18 02:11:55;;;;;;;20.33;18.08;;;18.90;99.90;;;;;;5098837;27;20775;-85
2022/08/18 02:14:22;;;;;;;22.05;18.58;;;18.90;99.90;;;;;;5096230;27;20043;-85
2022/08/18 02:16:48;;;;;;;27.92;19.38;;;18.90;99.90;;;;;;5085875;27;20059;-85
2022/08/18 02:19:13;;;;;;;19.35;16.80;;;18.90;99.90;;;;;;5084998;27;20445;-84
2022/08/18 02:21:39;;;;;;;27.23;19.65;;;18.90;99.90;;;;;;5084892;27;20034;-84
2022/08/18 02:24:08;;;;;;;73.05;29.48;;;18.90;99.90;;;;;;5093258;27;20051;-85
2022/08/18 02:26:34;;;;;;;24.48;16.65;;;18.80;99.90;;;;;;5096680;27;20053;-84
2022/08/18 02:28:59;;;;;;;25.90;17.00;;;18.90;99.90;;;;;;5087582;27;20125;-85
2022/08/18 02:31:26;;;;;;;49.08;23.85;;;18.90;99.90;;;;;;5083446;27;20313;-84
2022/08/18 02:33:52;;;;;;;19.42;13.75;;;18.90;99.90;;;;;;5069327;27;20659;-82
2022/08/18 02:36:20;;;;;;;18.88;14.35;;;18.90;99.90;;;;;;5084295;27;20795;-85
2022/08/18 02:38:46;;;;;;;24.38;15.57;;;18.90;99.90;;;;;;5100885;27;20053;-85
2022/08/18 02:41:13;;;;;;;20.85;13.25;;;18.90;99.90;;;;;;5099281;27;20038;-84
2022/08/18 02:43:40;;;;;;;15.27;13.68;;;18.90;99.90;;;;;;5098184;27;20046;-85
2022/08/18 02:46:10;;;;;;;20.75;13.70;;;18.90;99.90;;;;;;5081680;27;20104;-85
2022/08/18 02:48:39;;;;;;;23.02;15.52;;;18.90;99.90;;;;;;5092962;27;20051;-85
2022/08/18 02:51:11;;;;;;;22.30;14.07;;;18.80;99.90;;;;;;5080146;27;20035;-84
2022/08/18 02:53:39;;;;;;;17.98;13.20;;;18.90;99.90;;;;;;5103374;27;20115;-84
2022/08/18 02:56:24;;;;;;;33.83;19.27;;;18.90;99.90;;;;;;5105007;27;20053;-84
2022/08/18 02:58:59;;;;;;;40.63;22.35;;;18.90;99.90;;;;;;5103485;27;20077;-85
2022/08/18 03:01:31;;;;;;;54.90;25.65;;;18.90;99.90;;;;;;5118105;27;20099;-85
2022/08/18 03:04:01;;;;;;;25.08;16.95;;;18.80;99.90;;;;;;5118672;27;20043;-85
2022/08/18 03:06:29;;;;;;;35.65;20.73;;;18.80;99.90;;;;;;5118589;27;20051;-85
2022/08/18 03:08:55;;;;;;;62.85;26.98;;;18.80;99.90;;;;;;5089473;27;20066;-85
2022/08/18 03:11:25;;;;;;;27.35;17.48;;;18.80;99.90;;;;;;5100778;27;20034;-82
2022/08/18 03:13:51;;;;;;;39.00;20.95;;;18.80;99.90;;;;;;5131495;27;20093;-83
2022/08/18 03:16:20;;;;;;;30.85;17.70;;;18.80;99.90;;;;;;5108891;27;20070;-82
2022/08/18 03:18:46;;;;;;;15.70;12.35;;;18.80;99.90;;;;;;5115777;27;20054;-82
2022/08/18 03:21:15;;;;;;;12.65;11.20;;;18.80;99.90;;;;;;5111025;27;20061;-80
2022/08/18 03:23:43;;;;;;;23.73;15.48;;;18.80;99.90;;;;;;5116549;27;20043;-84
2022/08/18 03:26:10;;;;;;;15.15;11.50;;;18.70;99.90;;;;;;5121397;27;20344;-85
2022/08/18 03:28:39;;;;;;;19.95;14.23;;;18.70;99.90;;;;;;5099877;27;20486;-83
2022/08/18 03:31:06;;;;;;;37.25;20.45;;;18.80;99.90;;;;;;5118508;27;20076;-82
2022/08/18 03:33:33;;;;;;;27.38;17.67;;;18.70;99.90;;;;;;5118418;27;20051;-83
2022/08/18 03:36:18;;;;;;;15.68;12.63;;;18.70;99.90;;;;;;5101102;27;20047;-81
2022/08/18 03:38:45;;;;;;;18.50;13.35;;;18.80;99.90;;;;;;5123812;27;20042;-81
2022/08/18 03:41:14;;;;;;;15.55;13.20;;;18.70;99.90;;;;;;5110535;27;20053;-83
2022/08/18 03:43:40;;;;;;;20.38;13.80;;;18.80;99.90;;;;;;5116907;27;20503;-82
2022/08/18 03:46:11;;;;;;;19.17;13.20;;;18.80;99.90;;;;;;5099509;27;20099;-81
2022/08/18 03:48:39;;;;;;;47.30;22.92;;;18.80;99.90;;;;;;5112877;27;20039;-81
2022/08/18 03:51:10;;;;;;;37.13;22.55;;;18.70;99.90;;;;;;5109154;27;20038;-83
2022/08/18 03:53:39;;;;;;;16.55;14.77;;;18.70;99.90;;;;;;5106020;27;20055;-83
2022/08/18 03:56:14;;;;;;;18.17;13.07;;;18.70;99.90;;;;;;5087856;27;20042;-83
2022/08/18 03:58:52;;;;;;;30.65;19.73;;;18.70;99.90;;;;;;5107855;27;20035;-83
2022/08/18 04:01:21;;;;;;;16.35;14.00;;;18.70;99.90;;;;;;5104403;27;20057;-83
2022/08/18 04:03:51;;;;;;;24.40;17.77;;;18.70;99.90;;;;;;5095097;27;20046;-83
2022/08/18 04:06:21;;;;;;;27.60;18.45;;;18.70;99.90;;;;;;5112431;27;20560;-84
2022/08/18 04:08:50;;;;;;;34.03;21.17;;;18.70;99.90;;;;;;5130915;27;20082;-84
2022/08/18 04:11:16;;;;;;;15.97;14.13;;;18.70;99.90;;;;;;5116598;27;20046;-84
2022/08/18 04:13:45;;;;;;;19.77;16.80;;;18.70;99.90;;;;;;5095326;27;20583;-83
2022/08/18 04:16:11;;;;;;;36.67;22.98;;;18.70;99.90;;;;;;5107404;27;20665;-84
2022/08/18 04:18:37;;;;;;;22.42;17.42;;;18.70;99.90;;;;;;5096632;27;20047;-84
2022/08/18 04:21:08;;;;;;;39.13;23.40;;;18.70;99.90;;;;;;5098053;27;20118;-84
2022/08/18 04:23:38;;;;;;;64.45;29.40;;;18.70;99.90;;;;;;5101983;27;20410;-84
2022/08/18 04:26:09;;;;;;;20.23;16.85;;;18.70;99.90;;;;;;5094017;27;20493;-84
2022/08/18 04:28:38;;;;;;;19.45;15.68;;;18.70;99.90;;;;;;5116123;27;20561;-84
2022/08/18 04:31:10;;;;;;;42.03;23.70;;;18.70;99.90;;;;;;5123161;27;20041;-84
2022/08/18 04:33:37;;;;;;;23.73;18.48;;;18.70;99.90;;;;;;5107301;27;20135;-83
2022/08/18 04:36:11;;;;;;;29.77;21.23;;;18.60;99.90;;;;;;5098457;27;20058;-84
2022/08/18 04:38:38;;;;;;;29.60;20.70;;;18.70;99.90;;;;;;5130820;27;20047;-84
2022/08/18 04:41:08;;;;;;;19.02;16.73;;;18.70;99.90;;;;;;5105337;27;20042;-84
2022/08/18 04:43:34;;;;;;;;;;;18.60;99.90;;;;;;5085394;27;20095;-84
2022/08/18 04:46:03;;;;;;;26.98;20.42;;;18.60;99.90;;;;;;5098423;27;20390;-84
2022/08/18 04:48:32;;;;;;;23.60;19.88;;;18.60;99.90;;;;;;5111264;27;20035;-84
2022/08/18 04:51:04;;;;;;;22.55;17.77;;;18.60;99.90;;;;;;5112115;27;20038;-84
2022/08/18 04:53:44;;;;;;;25.65;18.35;;;18.60;99.90;;;;;;5101121;27;20057;-84
2022/08/18 04:56:36;;;;;;;26.85;20.30;;;18.60;99.90;;;;;;5093831;27;20515;-84
2022/08/18 04:59:14;;;;;;;19.65;14.70;;;18.60;99.90;;;;;;5111200;27;20047;-83
2022/08/18 05:01:44;;;;;;;21.10;16.38;;;18.60;99.90;;;;;;5112340;27;20450;-83
2022/08/18 05:04:12;;;;;;;;;;;18.60;99.90;;;;;;5103840;27;20077;-83
2022/08/18 05:06:39;;;;;;;33.88;21.65;;;18.60;99.90;;;;;;5086246;27;20389;-83
2022/08/18 05:09:07;;;;;;;35.40;21.02;;;18.60;99.90;;;;;;5107517;27;20038;-82
2022/08/18 05:11:34;;;;;;;71.13;27.48;;;18.60;99.90;;;;;;5098390;27;20047;-82
2022/08/18 05:14:02;;;;;;;26.85;21.70;;;18.60;99.90;;;;;;5106946;27;20031;-83
2022/08/18 05:16:35;;;;;;;23.63;19.33;;;18.60;99.90;;;;;;5108548;27;20108;-83
2022/08/18 05:19:10;;;;;;;58.40;32.58;;;18.70;99.90;;;;;;5081362;27;20070;-83
2022/08/18 05:21:42;;;;;;;47.47;26.58;;;18.70;99.90;;;;;;5104134;27;20123;-83
2022/08/18 05:24:08;;;;;;;22.48;18.80;;;18.70;99.90;;;;;;5089486;27;20463;-84
2022/08/18 05:26:44;;;;;;;41.33;24.88;;;18.70;99.90;;;;;;5093833;27;20043;-84
2022/08/18 05:29:13;;;;;;;46.92;26.15;;;18.70;99.90;;;;;;5111269;27;20408;-83
2022/08/18 05:31:39;;;;;;;34.35;25.55;;;18.70;99.90;;;;;;5112924;27;20046;-84
2022/08/18 05:34:08;;;;;;;18.20;16.33;;;18.70;99.90;;;;;;5074678;27;20089;-83
2022/08/18 05:36:49;;;;;;;46.60;28.52;;;18.70;99.90;;;;;;5093117;27;20050;-82
2022/08/18 05:39:34;;;;;;;20.70;18.52;;;18.70;99.90;;;;;;5107179;27;20508;-84
2022/08/18 05:42:02;;;;;;;18.42;16.65;;;18.70;99.90;;;;;;5119885;27;20118;-83
2022/08/18 05:44:30;;;;;;;29.73;22.35;;;18.70;99.90;;;;;;5119724;27;20123;-83
2022/08/18 05:47:12;;;;;;;32.25;22.20;;;18.80;99.90;;;;;;5103016;27;20409;-84
2022/08/18 05:49:40;;;;;;;71.65;32.88;;;18.80;99.90;;;;;;5109330;27;20047;-83
2022/08/18 05:52:13;;;;;;;31.02;22.23;;;18.80;99.90;;;;;;5094021;27;20043;-83
2022/08/18 05:57:40;;;;;;;45.13;29.25;;;18.90;99.90;;;;;;5115744;27;20043;-83
2022/08/18 06:00:09;;;;;;;34.42;25.30;;;18.90;99.90;;;;;;5103078;27;20054;-83
2022/08/18 06:02:56;;;;;;;18.27;16.43;;;18.90;99.90;;;;;;5098151;27;20043;-83
2022/08/18 06:05:25;;;;;;;19.48;17.30;;;19.00;99.90;;;;;;5100722;27;20300;-84
2022/08/18 06:08:01;;;;;;;20.30;18.17;;;19.00;99.90;;;;;;5115227;27;20170;-83
2022/08/18 06:10:27;;;;;;;37.88;26.52;;;19.00;99.90;;;;;;5100591;27;20161;-83
2022/08/18 06:12:58;;;;;;;20.98;18.77;;;19.00;99.90;;;;;;5097485;27;20165;-84
2022/08/18 06:15:37;;;;;;;24.60;21.38;;;19.10;99.90;;;;;;5096845;27;20093;-84
2022/08/18 06:18:15;;;;;;;23.35;18.40;;;19.20;99.90;;;;;;5101681;27;20728;-83
2022/08/18 06:21:21;;;;;;;19.55;17.30;;;19.20;99.90;;;;;;5109183;27;20035;-84
2022/08/18 06:23:49;;;;;;;28.27;22.55;;;19.30;99.90;;;;;;5091811;27;20055;-84
2022/08/18 06:26:34;;;;;;;18.25;15.70;;;19.40;99.90;;;;;;5111827;27;20057;-84
2022/08/18 06:29:27;;;;;;;23.55;20.80;;;19.50;99.90;;;;;;5098883;27;20126;-83
2022/08/18 06:32:10;;;;;;;;;;;19.60;99.90;;;;;;5106646;27;20126;-84
2022/08/18 06:35:14;;;;;;;22.27;17.52;;;19.60;99.90;;;;;;5090608;28;19931;-84
2022/08/18 06:40:32;;;;;;;23.55;19.77;;;19.60;99.90;;;;;;5101901;28;20051;-83
2022/08/18 06:43:02;;;;;;;21.92;19.40;;;19.60;99.90;;;;;;5083693;28;20040;-82
2022/08/18 06:45:33;;;;;;;;;;;19.50;99.90;;;;;;5084798;28;20119;-84
2022/08/18 06:48:21;;;;;;;23.88;21.35;;;19.50;99.90;;;;;;5083958;28;20041;-83
2022/08/18 06:50:47;;;;;;;22.30;19.98;;;19.50;99.90;;;;;;5103096;28;20393;-84
2022/08/18 06:53:13;;;;;;;23.48;21.02;;;19.50;99.90;;;;;;5082097;28;20114;-85
2022/08/18 06:55:42;;;;;;;17.08;15.68;;;19.60;99.90;;;;;;5084551;28;20055;-82
2022/08/18 06:58:17;;;;;;;17.25;15.55;;;19.60;99.90;;;;;;5084877;28;20630;-80
2022/08/18 07:01:01;;;;;;;14.30;12.88;;;19.60;99.90;;;;;;5100053;28;20052;-81
2022/08/18 07:03:53;;;;;;;11.85;10.75;;;19.60;99.90;;;;;;5078709;28;20421;-80
2022/08/18 07:06:22;;;;;;;12.35;11.05;;;19.60;99.90;;;;;;5083913;28;20040;-79
2022/08/18 07:08:50;;;;;;;10.52;9.52;;;19.60;99.90;;;;;;5102939;28;20039;-80
2022/08/18 07:11:32;;;;;;;11.55;9.95;;;19.70;99.90;;;;;;5064978;28;20316;-80
2022/08/18 07:14:24;;;;;;;13.18;10.10;;;19.70;99.90;;;;;;5080330;28;20043;-80
2022/08/18 07:17:04;;;;;;;14.13;12.50;;;19.70;99.90;;;;;;5100912;28;20063;-80
2022/08/18 07:19:34;;;;;;;10.38;9.30;;;19.70;99.90;;;;;;5098940;28;20247;-83
2022/08/18 07:22:11;;;;;;;12.73;11.40;;;19.80;99.90;;;;;;5086680;28;20088;-81
2022/08/18 07:24:53;;;;;;;10.30;9.32;;;19.70;99.90;;;;;;5097317;28;20047;-80
2022/08/18 07:27:51;;;;;;;10.20;9.20;;;19.70;99.90;;;;;;5105548;28;20040;-80
2022/08/18 07:30:18;;;;;;;10.48;9.20;;;19.70;99.90;;;;;;5079358;28;20497;-80
2022/08/18 07:33:05;;;;;;;10.52;8.82;;;19.70;99.90;;;;;;5087979;28;20055;-83
2022/08/18 07:35:55;;;;;;;9.50;8.63;;;19.70;99.90;;;;;;5110109;27;20685;-80
2022/08/18 07:38:33;;;;;;;10.35;8.63;;;19.70;99.90;;;;;;5136033;27;20673;-80
2022/08/18 07:41:29;;;;;;;11.50;9.48;;;19.60;99.90;;;;;;5120788;27;20039;-80
2022/08/18 07:44:04;;;;;;;9.05;7.85;;;19.70;99.90;;;;;;5103322;27;20071;-80
2022/08/18 07:46:45;;;;;;;10.48;7.75;;;19.70;99.90;;;;;;5115969;27;20039;-80
2022/08/18 07:49:18;;;;;;;13.93;10.68;;;19.70;99.90;;;;;;5116986;27;20039;-80
2022/08/18 07:52:17;;;;;;;11.15;8.40;;;19.70;99.90;;;;;;5103240;27;20042;-81
2022/08/18 07:55:15;;;;;;;9.98;7.72;;;19.80;99.90;;;;;;5105869;27;20134;-80
2022/08/18 07:57:45;;;;;;;8.30;5.97;;;19.80;99.90;;;;;;5098953;27;20051;-79
2022/08/18 08:00:27;;;;;;;8.70;6.38;;;19.80;99.90;;;;;;5113359;27;20047;-80
2022/08/18 08:03:30;;;;;;;6.10;4.70;;;19.80;99.90;;;;;;5123661;27;20047;-80
2022/08/18 08:06:16;;;;;;;5.80;4.13;;;19.80;99.90;;;;;;5098218;28;20054;-79
2022/08/18 08:08:47;;;;;;;6.70;3.88;;;19.80;99.90;;;;;;5118116;27;20501;-79
2022/08/18 08:11:43;;;;;;;3.00;2.50;;;19.80;99.90;;;;;;5119150;27;20075;-81
2022/08/18 08:14:28;;;;;;;4.13;2.53;;;19.70;99.90;;;;;;5107533;27;20126;-83
2022/08/18 08:17:12;;;;;;;4.68;3.10;;;19.70;99.90;;;;;;5123505;27;20054;-83
2022/08/18 08:20:10;;;;;;;5.97;3.92;;;19.60;99.90;;;;;;5103234;27;20048;-83
2022/08/18 08:22:54;;;;;;;5.43;4.13;;;19.60;99.90;;;;;;5103307;27;20065;-81
2022/08/18 08:25:24;;;;;;;4.63;3.85;;;19.50;99.90;;;;;;5101019;28;20935;-82
2022/08/18 08:28:06;;;;;;;9.23;5.72;;;19.50;99.90;;;;;;5112787;27;20069;-84
2022/08/18 08:30:40;;;;;;;12.63;6.78;;;19.50;99.90;;;;;;5109050;27;20516;-80
2022/08/18 08:33:46;;;;;;;12.43;6.53;;;19.50;99.90;;;;;;5104648;27;20070;-83
2022/08/18 08:36:26;;;;;;;13.13;7.78;;;19.60;99.90;;;;;;5112148;27;20039;-81
2022/08/18 08:39:00;;;;;;;14.65;8.55;;;19.60;99.90;;;;;;5106754;27;20127;-84
2022/08/18 08:41:53;;;;;;;10.57;6.95;;;19.60;99.90;;;;;;5103684;27;20452;-83
2022/08/18 08:44:39;;;;;;;11.27;6.70;;;19.60;99.90;;;;;;5107606;27;20505;-81
2022/08/18 08:47:25;;;;;;;12.68;6.85;;;19.50;99.90;;;;;;5133433;27;20076;-83
2022/08/18 08:49:56;;;;;;;14.82;7.35;;;19.50;99.90;;;;;;5113514;27;20039;-82
2022/08/18 08:52:39;;;;;;;13.60;6.88;;;19.50;99.90;;;;;;5105635;27;20035;-83
2022/08/18 08:55:15;;;;;;;11.88;8.40;;;19.60;99.90;;;;;;5112154;27;20074;-83
2022/08/18 08:57:49;;;;;;;10.88;7.15;;;19.60;99.90;;;;;;5108678;27;20411;-83
2022/08/18 09:00:17;;;;;;;10.63;6.30;;;19.70;99.90;;;;;;5102072;27;20054;-85
2022/08/18 09:03:12;;;;;;;14.57;6.68;;;19.90;99.90;;;;;;5090943;28;20126;-83
2022/08/18 09:05:49;;;;;;;12.00;6.43;;;19.90;99.90;;;;;;5123858;27;20055;-83
2022/08/18 09:08:27;;;;;;;12.27;6.05;;;20.00;99.90;;;;;;5123657;27;20039;-79
2022/08/18 09:11:03;;;;;;;10.98;5.35;;;20.10;99.90;;;;;;5135191;27;20044;-80
2022/08/18 09:13:58;;;;;;;7.85;5.10;;;20.20;99.90;;;;;;5115924;27;20043;-79
2022/08/18 09:16:48;;;;;;;9.57;5.05;;;20.30;99.90;;;;;;5127950;27;20043;-80
2022/08/18 09:19:38;;;;;;;9.52;5.63;;;20.40;99.90;;;;;;5134401;27;20540;-79
2022/08/18 09:22:09;;;;;;;8.60;4.60;;;20.50;99.90;;;;;;5130676;27;20063;-79
2022/08/18 09:24:48;;;;;;;8.43;4.50;;;20.50;99.90;;;;;;5102280;27;20051;-78
2022/08/18 09:27:29;;;;;;;7.00;4.05;;;20.60;99.90;;;;;;5117851;27;20043;-79
2022/08/18 09:30:01;;;;;;;7.65;3.97;;;20.70;99.90;;;;;;5110071;27;20047;-79
2022/08/18 09:32:33;;;;;;;5.43;2.50;;;21.00;99.90;;;;;;5107085;27;20142;-77
2022/08/18 09:35:22;;;;;;;4.75;3.10;;;21.10;99.90;;;;;;5098914;27;20204;-83
2022/08/18 09:44:12;;;;;;;4.68;2.83;;;21.10;99.90;;;;;;5111466;27;20489;-79
2022/08/18 09:46:46;;;;;;;5.38;2.65;;;21.10;99.90;;;;;;5084105;27;20070;-78
2022/08/18 09:49:21;;;;;;;4.95;2.65;;;21.30;99.90;;;;;;5092175;27;20046;-78
2022/08/18 09:51:50;;;;;;;5.80;2.53;;;21.30;99.90;;;;;;5103734;27;20413;-79
2022/08/18 09:54:48;;;;;;;4.40;2.63;;;21.30;99.90;;;;;;5082771;28;20124;-80
2022/08/18 09:57:25;;;;;;;3.53;2.45;;;21.20;99.90;;;;;;5115817;27;20035;-79
2022/08/18 10:00:02;;;;;;;4.13;2.38;;;21.20;99.90;;;;;;5097763;28;20748;-81
2022/08/18 10:02:28;;;;;;;4.43;2.72;;;21.30;99.90;;;;;;5100311;27;20075;-79
2022/08/18 10:05:15;;;;;;;4.93;2.92;;;21.20;99.90;;;;;;5099835;27;20082;-79
2022/08/18 10:07:57;;;;;;;4.47;2.40;;;21.20;99.90;;;;;;5116672;27;20047;-79
2022/08/18 10:10:55;;;;;;;3.42;1.95;;;21.20;99.90;;;;;;5116006;27;20047;-79
2022/08/18 10:13:49;;;;;;;5.05;2.28;;;21.30;99.90;;;;;;5111107;27;20055;-80
2022/08/18 10:16:27;;;;;;;4.47;2.45;;;21.30;99.90;;;;;;5098550;28;20431;-81
2022/08/18 10:19:22;;;;;;;3.83;1.80;;;21.30;99.90;;;;;;5095490;27;20093;-80
2022/08/18 10:21:57;;;;;;;3.60;2.17;;;21.30;99.90;;;;;;5114885;27;20055;-80
2022/08/18 10:24:29;;;;;;;2.95;1.80;;;21.40;99.90;;;;;;5099778;27;20042;-79
2022/08/18 10:26:55;;;;;;;5.10;2.40;;;21.70;99.90;;;;;;5099059;28;20044;-79
2022/08/18 10:29:26;;;;;;;3.92;1.98;;;21.90;99.90;;;;;;5119229;27;20461;-79
2022/08/18 10:31:55;;;;;;;4.65;1.80;;;22.00;99.90;;;;;;5115919;27;20128;-79
2022/08/18 10:34:36;;;;;;;3.38;2.30;;;22.00;99.90;;;;;;5095550;28;20050;-79
2022/08/18 10:37:15;;;;;;;4.25;1.98;;;21.90;99.90;;;;;;5101618;27;20082;-80
2022/08/18 10:39:53;;;;;;;2.45;1.77;;;21.70;99.90;;;;;;5107237;27;20523;-79
2022/08/18 10:42:41;;;;;;;7.30;2.05;;;21.60;99.90;;;;;;5105803;27;20043;-80
2022/08/18 10:45:13;;;;;;;4.47;2.50;;;21.50;99.90;;;;;;5106642;28;20054;-80
2022/08/18 10:47:41;;;;;;;3.45;2.45;;;21.30;99.90;;;;;;5123364;27;20058;-81
2022/08/18 10:50:21;;;;;;;6.40;2.50;;;21.20;99.90;;;;;;5091802;27;20378;-81
2022/08/18 10:53:18;;;;;;;4.45;2.20;;;21.20;99.90;;;;;;5112924;27;20081;-80
2022/08/18 10:55:45;;;;;;;3.33;2.10;;;21.10;99.90;;;;;;5118886;27;20066;-83
2022/08/18 10:58:29;;;;;;;3.72;2.35;;;21.10;99.90;;;;;;5105642;27;20405;-80
2022/08/18 11:01:07;;;;;;;4.78;1.80;;;21.10;99.90;;;;;;5105204;27;20046;-79
2022/08/18 11:04:16;;;;;;;4.15;2.00;;;21.20;99.90;;;;;;5125774;27;20077;-79
2022/08/18 11:06:48;;;;;;;3.75;2.13;;;21.30;99.90;;;;;;5053092;28;20079;-79
2022/08/18 11:09:25;;;;;;;4.93;2.28;;;21.40;99.90;;;;;;5093011;28;20054;-80
2022/08/18 11:11:57;;;;;;;5.38;3.00;;;21.50;99.90;;;;;;5096853;27;20139;-79
2022/08/18 11:14:37;;;;;;;4.88;2.20;;;21.50;99.90;;;;;;5108250;27;20038;-81
2022/08/18 11:17:19;;;;;;;3.45;2.38;;;21.60;99.90;;;;;;5100385;27;20038;-82
2022/08/18 11:19:45;;;;;;;5.13;2.47;;;21.50;99.90;;;;;;5118591;27;20051;-82
2022/08/18 11:22:29;;;;;;;5.22;2.38;;;21.50;99.90;;;;;;5089077;27;20082;-82
2022/08/18 11:24:55;;;;;;;7.32;2.67;;;21.50;99.90;;;;;;5114546;27;20065;-81
2022/08/18 11:27:28;;;;;;;5.82;2.60;;;21.40;99.90;;;;;;5103930;27;20035;-81
2022/08/18 11:29:58;;;;;;;3.33;2.13;;;21.50;99.90;;;;;;5103379;27;20121;-80
2022/08/18 11:32:27;;;;;;;3.55;1.85;;;21.50;99.90;;;;;;5107557;27;20464;-82
2022/08/18 11:35:09;;;;;;;3.53;1.60;;;21.50;99.90;;;;;;5107583;27;20089;-82
2022/08/18 11:37:42;;;;;;;3.00;1.55;;;21.50;99.90;;;;;;5099202;27;20046;-83
2022/08/18 11:40:32;;;;;;;2.90;1.30;;;21.60;99.90;;;;;;5103646;27;20051;-83
2022/08/18 11:43:04;;;;;;;3.90;1.88;;;21.60;99.90;;;;;;5112877;27;20043;-81
2022/08/18 11:45:45;;;;;;;4.25;2.30;;;21.70;99.90;;;;;;5111388;27;20084;-81
2022/08/18 11:48:41;;;;;;;4.22;1.80;;;21.80;99.90;;;;;;5107385;27;20389;-83
2022/08/18 11:51:10;;;;;;;4.78;2.10;;;22.10;99.90;;;;;;5103668;27;20043;-82
2022/08/18 11:53:48;;;;;;;4.32;2.05;;;22.40;99.90;;;;;;5121608;27;20062;-80
2022/08/18 11:56:19;;;;;;;5.05;2.60;;;22.70;99.90;;;;;;5126402;27;20149;-80
2022/08/18 11:58:53;;;;;;;4.88;2.58;;;22.90;99.90;;;;;;5106602;27;20525;-79
2022/08/18 12:01:39;;;;;;;4.72;2.10;;;23.00;99.90;;;;;;5098766;27;20053;-80
2022/08/18 12:04:27;;;;;;;3.97;1.48;;;23.10;99.90;;;;;;5118129;27;20039;-80
2022/08/18 12:06:58;;;;;;;4.68;2.28;;;23.10;99.90;;;;;;5107290;27;20085;-79
2022/08/18 12:09:30;;;;;;;3.80;1.80;;;23.00;99.90;;;;;;5114406;27;20043;-82
2022/08/18 12:12:26;;;;;;;4.63;2.15;;;22.90;99.90;;;;;;5101658;27;20549;-81
2022/08/18 12:15:10;;;;;;;3.95;2.03;;;22.80;99.90;;;;;;5115653;27;20564;-81
2022/08/18 12:17:36;;;;;;;7.28;2.35;;;22.70;99.90;;;;;;5113050;27;20151;-82
2022/08/18 12:20:06;;;;;;;5.50;2.30;;;22.60;99.90;;;;;;5109043;27;20438;-83
2022/08/18 12:22:33;;;;;;;5.03;2.20;;;22.50;99.90;;;;;;5112895;27;20068;-82
2022/08/18 12:25:00;;;;;;;4.50;2.10;;;22.40;99.90;;;;;;5093770;27;20058;-82
2022/08/18 12:27:29;;;;;;;4.63;2.30;;;22.40;99.90;;;;;;5111929;27;20051;-80
2022/08/18 12:29:57;;;;;;;3.45;2.15;;;22.40;99.90;;;;;;5091885;27;20039;-84
2022/08/18 12:32:24;;;;;;;5.65;1.95;;;22.40;99.90;;;;;;5078725;27;20120;-84
2022/08/18 12:34:51;;;;;;;4.13;2.00;;;22.50;99.90;;;;;;5090098;27;20111;-82
2022/08/18 12:37:24;;;;;;;4.60;1.90;;;22.50;99.90;;;;;;5084076;27;20090;-83
2022/08/18 12:39:51;;;;;;;3.47;1.90;;;22.60;99.90;;;;;;5102482;27;20112;-81
2022/08/18 12:42:18;;;;;;;3.47;1.63;;;22.60;99.90;;;;;;5090926;27;20092;-82
2022/08/18 12:44:45;;;;;;;5.93;1.88;;;22.60;99.90;;;;;;5120311;27;20385;-82
2022/08/18 12:47:23;;;;;;;5.07;2.03;;;22.70;99.90;;;;;;5107217;27;20042;-81
2022/08/18 12:49:50;;;;;;;5.03;2.50;;;22.70;99.90;;;;;;5120988;27;20660;-81
2022/08/18 12:52:16;;;;;;;4.00;1.88;;;22.70;99.90;;;;;;5103676;27;20069;-80
2022/08/18 12:54:45;;;;;;;6.07;2.22;;;22.70;99.90;;;;;;5105501;27;20077;-80
2022/08/18 12:57:19;;;;;;;4.55;2.05;;;22.60;99.90;;;;;;5094913;27;20957;-81
2022/08/18 12:59:45;;;;;;;5.07;2.08;;;22.60;99.90;;;;;;5112515;27;20050;-82
2022/08/18 13:02:11;;;;;;;4.00;1.90;;;22.50;99.90;;;;;;5067827;27;20051;-81
2022/08/18 13:04:38;;;;;;;5.50;1.98;;;22.50;99.90;;;;;;5094050;27;20042;-82
2022/08/18 13:07:06;;;;;;;4.20;2.00;;;22.50;99.90;;;;;;5093370;27;20043;-84
2022/08/18 13:09:34;;;;;;;4.88;2.40;;;22.60;99.90;;;;;;5107443;27;20026;-90
2022/08/18 13:11:59;;;;;;;3.63;2.13;;;22.80;99.90;;;;;;5120145;27;20121;-83
2022/08/18 13:14:25;;;;;;;5.55;2.53;;;22.90;99.90;;;;;;5094320;27;20389;-79
2022/08/18 13:16:54;;;;;;;5.47;2.20;;;23.00;99.90;;;;;;5098969;27;20046;-79
2022/08/18 13:19:20;;;;;;;4.03;2.30;;;23.20;99.90;;;;;;5086630;27;20046;-79
2022/08/18 13:21:46;;;;;;;4.22;2.35;;;23.40;99.90;;;;;;5081147;27;20528;-79
2022/08/18 13:24:12;;;;;;;4.80;2.40;;;23.60;99.90;;;;;;5086526;27;20048;-79
2022/08/18 13:26:41;;;;;;;7.53;2.38;;;23.70;99.90;;;;;;5091706;27;20043;-79
2022/08/18 13:29:07;;;;;;;7.70;2.67;;;23.80;99.90;;;;;;5096831;27;20054;-79
2022/08/18 13:31:33;;;;;;;4.60;2.13;;;24.00;99.90;;;;;;5105976;27;20034;-81